Hope, Rhode Island
Current Conditions -  °F | °C
As of 12:51 PM on Friday 26 Dec 2014 (Local Time) from KPVD Reporting Station
Few Clouds Few Clouds  
Wind Chill: 45°   Ceiling: Unl
Heat Index: 49°   Visibility: 10mi
Dew Point: 30°   Wind: 9mph
Humidity: 48%   Direction: 300°WNW
Pressure: 30.14"   Gusts: NA
Location:  41.73°N, 71.56°W
Report Text: KPVD 261751Z 30008KT 10SM FEW250 FEW300 09/M01 A3014 RMK AO2 SLP207 T00941011 10094 20028 57018
Loading
Personal Weather Stations






























Interactive Weather Map New forecast layout! Learn more

10-Day Weather Forecast

Advertisements
Track Severe Weather on mobile